sensor_id;sensor_type;location;lat;lon;timestamp;P1;P2;P0
61873;PMS5003;49692;55.052;73.310;2022-10-14T00:02:03;8.00;4.00;3.00
61873;PMS5003;49692;55.052;73.310;2022-10-14T00:04:30;5.00;3.00;2.50
61873;PMS5003;49692;55.052;73.310;2022-10-14T00:07:02;2.50;1.00;0.50
61873;PMS5003;49692;55.052;73.310;2022-10-14T00:09:52;3.50;1.00;0.50
61873;PMS5003;49692;55.052;73.310;2022-10-14T00:12:24;3.75;3.00;2.50
61873;PMS5003;49692;55.052;73.310;2022-10-14T00:14:55;4.50;1.00;1.00
61873;PMS5003;49692;55.052;73.310;2022-10-14T00:17:34;5.00;3.00;3.00
61873;PMS5003;49692;55.052;73.310;2022-10-14T00:20:02;4.00;1.00;1.00
61873;PMS5003;49692;55.052;73.310;2022-10-14T00:22:33;5.75;3.25;3.00
61873;PMS5003;49692;55.052;73.310;2022-10-14T00:25:06;3.67;2.33;1.67
61873;PMS5003;49692;55.052;73.310;2022-10-14T00:27:37;7.00;4.00;3.00
61873;PMS5003;49692;55.052;73.310;2022-10-14T00:30:11;3.25;3.00;3.00
61873;PMS5003;49692;55.052;73.310;2022-10-14T00:32:38;23.25;15.50;10.75
61873;PMS5003;49692;55.052;73.310;2022-10-14T00:35:05;7.75;5.00;4.00
61873;PMS5003;49692;55.052;73.310;2022-10-14T00:37:38;6.50;4.00;4.00
61873;PMS5003;49692;55.052;73.310;2022-10-14T00:40:06;6.50;4.00;3.50
61873;PMS5003;49692;55.052;73.310;2022-10-14T00:42:33;4.50;3.25;3.00
61873;PMS5003;49692;55.052;73.310;2022-10-14T00:45:12;8.00;6.25;4.00
61873;PMS5003;49692;55.052;73.310;2022-10-14T00:47:56;5.00;3.25;3.00
61873;PMS5003;49692;55.052;73.310;2022-10-14T00:50:29;11.50;4.00;3.25
61873;PMS5003;49692;55.052;73.310;2022-10-14T00:53:07;10.25;4.00;3.00
61873;PMS5003;49692;55.052;73.310;2022-10-14T00:55:36;7.00;3.00;2.25
61873;PMS5003;49692;55.052;73.310;2022-10-14T00:58:33;7.50;7.00;6.00
61873;PMS5003;49692;55.052;73.310;2022-10-14T01:01:04;15.50;7.00;6.00
61873;PMS5003;49692;55.052;73.310;2022-10-14T01:03:44;12.50;9.75;7.00
61873;PMS5003;49692;55.052;73.310;2022-10-14T01:09:22;10.25;6.75;6.00
61873;PMS5003;49692;55.052;73.310;2022-10-14T01:12:02;10.50;6.75;6.00
61873;PMS5003;49692;55.052;73.310;2022-10-14T01:14:37;3.00;2.50;0.75
61873;PMS5003;49692;55.052;73.310;2022-10-14T01:22:48;7.50;7.00;6.00
61873;PMS5003;49692;55.052;73.310;2022-10-14T01:31:13;12.75;9.00;7.00
61873;PMS5003;49692;55.052;73.310;2022-10-14T01:33:45;13.50;6.00;4.00
61873;PMS5003;49692;55.052;73.310;2022-10-14T01:41:58;18.00;10.00;8.00
61873;PMS5003;49692;55.052;73.310;2022-10-14T01:44:33;10.25;9.50;8.00
61873;PMS5003;49692;55.052;73.310;2022-10-14T01:47:32;16.00;12.00;9.50
61873;PMS5003;49692;55.052;73.310;2022-10-14T01:50:04;15.50;8.00;7.00
61873;PMS5003;49692;55.052;73.310;2022-10-14T01:52:39;16.50;14.50;11.50
61873;PMS5003;49692;55.052;73.310;2022-10-14T01:55:12;19.50;12.50;9.75
61873;PMS5003;49692;55.052;73.310;2022-10-14T01:57:43;14.00;11.00;9.00
61873;PMS5003;49692;55.052;73.310;2022-10-14T02:00:14;15.00;12.00;10.00
61873;PMS5003;49692;55.052;73.310;2022-10-14T02:02:41;15.25;13.25;11.50
61873;PMS5003;49692;55.052;73.310;2022-10-14T02:05:56;17.25;14.00;10.50
61873;PMS5003;49692;55.052;73.310;2022-10-14T02:08:09;13.00;9.50;7.00
61873;PMS5003;49692;55.052;73.310;2022-10-14T02:13:30;13.00;10.00;6.00
61873;PMS5003;49692;55.052;73.310;2022-10-14T02:19:41;10.75;6.25;3.00
61873;PMS5003;49692;55.052;73.310;2022-10-14T02:25:05;16.25;11.00;7.50
61873;PMS5003;49692;55.052;73.310;2022-10-14T02:27:34;9.25;7.50;6.50
61873;PMS5003;49692;55.052;73.310;2022-10-14T02:30:03;9.75;7.00;6.00
61873;PMS5003;49692;55.052;73.310;2022-10-14T02:32:31;17.00;9.75;7.50
61873;PMS5003;49692;55.052;73.310;2022-10-14T02:35:00;11.25;10.50;7.50
61873;PMS5003;49692;55.052;73.310;2022-10-14T02:37:28;20.25;12.75;8.75
61873;PMS5003;49692;55.052;73.310;2022-10-14T02:40:00;18.25;13.75;9.75
61873;PMS5003;49692;55.052;73.310;2022-10-14T02:42:35;11.25;7.50;6.25
61873;PMS5003;49692;55.052;73.310;2022-10-14T02:45:05;12.50;6.00;4.50
61873;PMS5003;49692;55.052;73.310;2022-10-14T02:47:34;10.50;9.00;6.75
61873;PMS5003;49692;55.052;73.310;2022-10-14T02:50:03;11.00;9.75;7.00
61873;PMS5003;49692;55.052;73.310;2022-10-14T02:52:30;7.75;6.00;4.00
61873;PMS5003;49692;55.052;73.310;2022-10-14T02:54:57;14.25;7.50;6.00
61873;PMS5003;49692;55.052;73.310;2022-10-14T02:57:24;6.00;5.00;3.25
61873;PMS5003;49692;55.052;73.310;2022-10-14T02:59:55;13.50;9.00;7.00
61873;PMS5003;49692;55.052;73.310;2022-10-14T03:02:23;13.00;9.50;8.00
61873;PMS5003;49692;55.052;73.310;2022-10-14T03:04:52;10.00;9.00;6.75
61873;PMS5003;49692;55.052;73.310;2022-10-14T03:07:19;4.00;0.75;0.50
61873;PMS5003;49692;55.052;73.310;2022-10-14T03:09:49;12.50;8.00;6.00
61873;PMS5003;49692;55.052;73.310;2022-10-14T03:12:16;15.50;10.00;6.25
61873;PMS5003;49692;55.052;73.310;2022-10-14T03:14:49;15.00;9.00;7.00
61873;PMS5003;49692;55.052;73.310;2022-10-14T03:17:18;10.00;9.50;6.50
61873;PMS5003;49692;55.052;73.310;2022-10-14T03:19:48;17.50;11.50;8.75
61873;PMS5003;49692;55.052;73.310;2022-10-14T03:22:26;15.00;9.00;6.75
61873;PMS5003;49692;55.052;73.310;2022-10-14T03:24:54;13.25;9.75;5.50
61873;PMS5003;49692;55.052;73.310;2022-10-14T03:27:41;14.00;10.50;7.50
61873;PMS5003;49692;55.052;73.310;2022-10-14T03:30:14;5.75;5.50;3.50
61873;PMS5003;49692;55.052;73.310;2022-10-14T03:32:58;10.50;5.50;4.00
61873;PMS5003;49692;55.052;73.310;2022-10-14T03:36:00;9.25;6.00;4.00
61873;PMS5003;49692;55.052;73.310;2022-10-14T03:38:39;9.50;6.25;6.00
61873;PMS5003;49692;55.052;73.310;2022-10-14T03:41:18;11.50;8.75;6.75
61873;PMS5003;49692;55.052;73.310;2022-10-14T03:43:47;12.00;6.00;4.00
61873;PMS5003;49692;55.052;73.310;2022-10-14T03:46:14;6.50;6.00;4.00
61873;PMS5003;49692;55.052;73.310;2022-10-14T03:48:41;10.00;7.00;6.00
61873;PMS5003;49692;55.052;73.310;2022-10-14T03:51:08;9.00;3.00;3.00
61873;PMS5003;49692;55.052;73.310;2022-10-14T03:53:37;6.75;4.00;3.00
61873;PMS5003;49692;55.052;73.310;2022-10-14T03:56:07;12.25;7.00;5.00
61873;PMS5003;49692;55.052;73.310;2022-10-14T03:58:47;12.00;6.75;4.00
61873;PMS5003;49692;55.052;73.310;2022-10-14T04:01:16;9.25;6.00;4.00
61873;PMS5003;49692;55.052;73.310;2022-10-14T04:04:03;14.00;10.50;6.00
61873;PMS5003;49692;55.052;73.310;2022-10-14T04:06:32;7.75;5.00;5.00
61873;PMS5003;49692;55.052;73.310;2022-10-14T04:09:07;12.25;6.50;4.00
61873;PMS5003;49692;55.052;73.310;2022-10-14T04:11:37;6.25;4.00;1.00
61873;PMS5003;49692;55.052;73.310;2022-10-14T04:14:13;8.00;7.00;4.00
61873;PMS5003;49692;55.052;73.310;2022-10-14T04:16:51;9.50;3.75;2.50
61873;PMS5003;49692;55.052;73.310;2022-10-14T04:19:19;7.50;3.25;3.00
61873;PMS5003;49692;55.052;73.310;2022-10-14T04:21:56;8.00;4.00;4.00
61873;PMS5003;49692;55.052;73.310;2022-10-14T04:24:25;11.50;6.00;3.50
61873;PMS5003;49692;55.052;73.310;2022-10-14T04:26:56;7.50;5.00;3.25
61873;PMS5003;49692;55.052;73.310;2022-10-14T04:29:49;6.00;6.00;4.00
61873;PMS5003;49692;55.052;73.310;2022-10-14T04:32:25;3.50;3.00;2.50
61873;PMS5003;49692;55.052;73.310;2022-10-14T04:34:52;4.75;3.00;2.00
61873;PMS5003;49692;55.052;73.310;2022-10-14T04:37:23;2.75;2.75;1.50
61873;PMS5003;49692;55.052;73.310;2022-10-14T04:40:12;5.50;3.50;3.00
61873;PMS5003;49692;55.052;73.310;2022-10-14T04:42:45;7.50;3.25;3.00
61873;PMS5003;49692;55.052;73.310;2022-10-14T04:45:23;4.50;2.50;1.00
61873;PMS5003;49692;55.052;73.310;2022-10-14T04:47:58;6.00;3.00;1.50
61873;PMS5003;49692;55.052;73.310;2022-10-14T04:50:37;7.00;2.00;1.50
61873;PMS5003;49692;55.052;73.310;2022-10-14T04:53:34;6.00;3.50;3.00
61873;PMS5003;49692;55.052;73.310;2022-10-14T04:56:31;4.25;3.75;3.00
61873;PMS5003;49692;55.052;73.310;2022-10-14T04:59:01;4.00;3.00;3.00
61873;PMS5003;49692;55.052;73.310;2022-10-14T05:01:54;4.50;3.00;3.00
61873;PMS5003;49692;55.052;73.310;2022-10-14T05:04:34;3.50;3.50;3.50
61873;PMS5003;49692;55.052;73.310;2022-10-14T05:07:01;7.50;4.00;2.00
61873;PMS5003;49692;55.052;73.310;2022-10-14T05:09:28;10.00;3.50;2.00
61873;PMS5003;49692;55.052;73.310;2022-10-14T05:11:58;5.00;3.00;1.00
61873;PMS5003;49692;55.052;73.310;2022-10-14T05:14:34;3.00;1.00;1.00
61873;PMS5003;49692;55.052;73.310;2022-10-14T05:17:20;11.00;6.50;5.00
61873;PMS5003;49692;55.052;73.310;2022-10-14T05:20:06;3.25;3.00;1.00
61873;PMS5003;49692;55.052;73.310;2022-10-14T05:22:42;3.25;0.00;0.00
61873;PMS5003;49692;55.052;73.310;2022-10-14T05:25:14;3.75;2.00;2.00
61873;PMS5003;49692;55.052;73.310;2022-10-14T05:27:50;1.00;1.00;1.00
61873;PMS5003;49692;55.052;73.310;2022-10-14T05:30:21;3.75;1.50;1.50
61873;PMS5003;49692;55.052;73.310;2022-10-14T05:32:57;5.50;1.00;1.00
61873;PMS5003;49692;55.052;73.310;2022-10-14T05:35:23;1.00;1.00;0.00
61873;PMS5003;49692;55.052;73.310;2022-10-14T05:37:54;5.50;3.00;1.00
61873;PMS5003;49692;55.052;73.310;2022-10-14T05:40:23;3.75;0.50;0.00
61873;PMS5003;49692;55.052;73.310;2022-10-14T05:42:52;6.00;1.50;1.00
61873;PMS5003;49692;55.052;73.310;2022-10-14T05:45:49;3.00;1.00;1.00
61873;PMS5003;49692;55.052;73.310;2022-10-14T05:48:28;1.50;0.00;0.00
61873;PMS5003;49692;55.052;73.310;2022-10-14T05:50:58;3.50;3.25;2.00
61873;PMS5003;49692;55.052;73.310;2022-10-14T05:53:38;4.00;1.00;1.00
61873;PMS5003;49692;55.052;73.310;2022-10-14T05:56:21;2.00;1.00;1.00
61873;PMS5003;49692;55.052;73.310;2022-10-14T05:58:48;5.50;0.75;0.75
61873;PMS5003;49692;55.052;73.310;2022-10-14T06:01:17;6.00;3.00;1.00
61873;PMS5003;49692;55.052;73.310;2022-10-14T06:03:44;3.50;1.00;1.00
61873;PMS5003;49692;55.052;73.310;2022-10-14T06:06:17;0.00;0.00;0.00
61873;PMS5003;49692;55.052;73.310;2022-10-14T06:08:55;8.50;1.00;1.00
61873;PMS5003;49692;55.052;73.310;2022-10-14T06:11:22;6.50;1.00;0.00
61873;PMS5003;49692;55.052;73.310;2022-10-14T06:13:49;1.00;1.00;1.00
61873;PMS5003;49692;55.052;73.310;2022-10-14T06:16:20;10.00;1.00;1.00
61873;PMS5003;49692;55.052;73.310;2022-10-14T06:18:48;6.50;3.00;1.00
61873;PMS5003;49692;55.052;73.310;2022-10-14T06:21:15;3.50;1.00;1.00
61873;PMS5003;49692;55.052;73.310;2022-10-14T06:23:42;3.75;1.00;0.75
61873;PMS5003;49692;55.052;73.310;2022-10-14T06:26:21;2.50;1.00;0.50
61873;PMS5003;49692;55.052;73.310;2022-10-14T06:28:47;3.75;0.00;0.00
61873;PMS5003;49692;55.052;73.310;2022-10-14T06:31:20;1.50;1.00;1.00
61873;PMS5003;49692;55.052;73.310;2022-10-14T06:33:48;0.00;0.00;0.00
61873;PMS5003;49692;55.052;73.310;2022-10-14T06:36:16;5.00;0.50;0.50
61873;PMS5003;49692;55.052;73.310;2022-10-14T06:38:43;3.50;0.50;0.25
61873;PMS5003;49692;55.052;73.310;2022-10-14T06:41:10;1.00;1.00;0.00
61873;PMS5003;49692;55.052;73.310;2022-10-14T06:43:37;1.50;1.50;0.50
61873;PMS5003;49692;55.052;73.310;2022-10-14T06:46:14;3.25;1.00;1.00
61873;PMS5003;49692;55.052;73.310;2022-10-14T06:48:47;0.50;0.50;0.50
61873;PMS5003;49692;55.052;73.310;2022-10-14T06:51:15;3.00;1.00;1.00
61873;PMS5003;49692;55.052;73.310;2022-10-14T06:53:43;5.50;0.75;0.75
61873;PMS5003;49692;55.052;73.310;2022-10-14T06:59:45;7.00;1.00;1.00
61873;PMS5003;49692;55.052;73.310;2022-10-14T07:02:28;9.00;1.00;1.00
61873;PMS5003;49692;55.052;73.310;2022-10-14T07:05:05;5.00;2.50;1.00
61873;PMS5003;49692;55.052;73.310;2022-10-14T07:07:33;6.25;1.00;1.00
61873;PMS5003;49692;55.052;73.310;2022-10-14T07:10:01;2.25;0.00;0.00
61873;PMS5003;49692;55.052;73.310;2022-10-14T07:12:28;7.75;3.00;1.00
61873;PMS5003;49692;55.052;73.310;2022-10-14T07:14:54;7.00;1.00;1.00
61873;PMS5003;49692;55.052;73.310;2022-10-14T07:17:22;3.50;0.00;0.00
61873;PMS5003;49692;55.052;73.310;2022-10-14T07:19:50;0.75;0.25;0.00
61873;PMS5003;49692;55.052;73.310;2022-10-14T07:22:17;9.25;6.25;4.00
61873;PMS5003;49692;55.052;73.310;2022-10-14T07:24:44;7.25;4.00;3.75
61873;PMS5003;49692;55.052;73.310;2022-10-14T07:27:12;6.25;4.50;2.50
61873;PMS5003;49692;55.052;73.310;2022-10-14T07:29:50;11.25;4.25;4.00
61873;PMS5003;49692;55.052;73.310;2022-10-14T07:32:17;8.25;3.25;3.00
61873;PMS5003;49692;55.052;73.310;2022-10-14T07:34:45;1.00;1.00;1.00
61873;PMS5003;49692;55.052;73.310;2022-10-14T07:37:13;3.50;2.00;1.00
61873;PMS5003;49692;55.052;73.310;2022-10-14T07:39:42;18.50;8.00;5.00
61873;PMS5003;49692;55.052;73.310;2022-10-14T07:42:10;8.50;6.00;3.25
61873;PMS5003;49692;55.052;73.310;2022-10-14T07:44:38;12.25;4.00;2.00
61873;PMS5003;49692;55.052;73.310;2022-10-14T07:47:05;10.75;4.25;3.50
61873;PMS5003;49692;55.052;73.310;2022-10-14T07:49:32;10.50;4.50;4.00
61873;PMS5003;49692;55.052;73.310;2022-10-14T07:52:09;14.00;7.75;6.00
61873;PMS5003;49692;55.052;73.310;2022-10-14T07:54:36;6.00;4.00;3.75
61873;PMS5003;49692;55.052;73.310;2022-10-14T07:57:06;10.50;4.25;4.00
61873;PMS5003;49692;55.052;73.310;2022-10-14T07:59:33;6.75;4.00;3.00
61873;PMS5003;49692;55.052;73.310;2022-10-14T08:02:01;7.50;3.00;2.00
61873;PMS5003;49692;55.052;73.310;2022-10-14T08:04:30;4.25;3.50;2.25
61873;PMS5003;49692;55.052;73.310;2022-10-14T08:06:57;8.75;4.00;2.75
61873;PMS5003;49692;55.052;73.310;2022-10-14T08:09:25;12.75;5.00;4.00
61873;PMS5003;49692;55.052;73.310;2022-10-14T08:11:52;9.00;3.50;1.25
61873;PMS5003;49692;55.052;73.310;2022-10-14T08:14:19;13.75;7.00;5.00
61873;PMS5003;49692;55.052;73.310;2022-10-14T08:16:46;15.25;10.50;7.50
61873;PMS5003;49692;55.052;73.310;2022-10-14T08:19:13;17.25;8.00;6.50
61873;PMS5003;49692;55.052;73.310;2022-10-14T08:21:41;14.00;8.00;4.00
61873;PMS5003;49692;55.052;73.310;2022-10-14T08:24:10;11.00;3.75;2.25
61873;PMS5003;49692;55.052;73.310;2022-10-14T08:26:51;13.25;6.50;4.00
61873;PMS5003;49692;55.052;73.310;2022-10-14T08:29:29;23.00;10.00;7.00
61873;PMS5003;49692;55.052;73.310;2022-10-14T08:32:36;15.00;8.00;7.25
61873;PMS5003;49692;55.052;73.310;2022-10-14T08:35:10;15.50;8.75;6.00
61873;PMS5003;49692;55.052;73.310;2022-10-14T08:37:54;11.00;4.50;4.00
61873;PMS5003;49692;55.052;73.310;2022-10-14T08:43:29;7.00;4.00;2.00
61873;PMS5003;49692;55.052;73.310;2022-10-14T08:46:08;10.00;4.50;2.25
61873;PMS5003;49692;55.052;73.310;2022-10-14T08:52:04;7.25;4.50;4.00
61873;PMS5003;49692;55.052;73.310;2022-10-14T08:54:39;7.00;5.25;3.75
61873;PMS5003;49692;55.052;73.310;2022-10-14T08:57:18;6.50;3.50;2.00
61873;PMS5003;49692;55.052;73.310;2022-10-14T09:00:02;10.50;3.50;2.00
61873;PMS5003;49692;55.052;73.310;2022-10-14T09:05:16;2.00;1.00;1.00
61873;PMS5003;49692;55.052;73.310;2022-10-14T09:07:48;1.50;1.25;1.00
61873;PMS5003;49692;55.052;73.310;2022-10-14T09:10:40;7.75;1.75;1.75
61873;PMS5003;49692;55.052;73.310;2022-10-14T09:13:19;1.75;1.25;1.00
61873;PMS5003;49692;55.052;73.310;2022-10-14T09:15:55;11.50;2.50;1.25
61873;PMS5003;49692;55.052;73.310;2022-10-14T09:18:54;4.75;1.75;1.50
61873;PMS5003;49692;55.052;73.310;2022-10-14T09:21:42;12.50;7.25;6.50
61873;PMS5003;49692;55.052;73.310;2022-10-14T09:24:24;12.50;7.00;5.50
61873;PMS5003;49692;55.052;73.310;2022-10-14T09:27:21;7.00;5.00;4.00
61873;PMS5003;49692;55.052;73.310;2022-10-14T09:29:58;4.50;3.00;2.00
61873;PMS5003;49692;55.052;73.310;2022-10-14T09:32:54;1.75;1.25;1.00
61873;PMS5003;49692;55.052;73.310;2022-10-14T09:35:35;6.25;3.00;2.00
61873;PMS5003;49692;55.052;73.310;2022-10-14T09:38:09;1.50;1.00;1.00
61873;PMS5003;49692;55.052;73.310;2022-10-14T09:40:43;5.25;3.00;2.00
61873;PMS5003;49692;55.052;73.310;2022-10-14T09:43:18;4.00;4.00;2.00
61873;PMS5003;49692;55.052;73.310;2022-10-14T09:46:16;4.00;1.50;1.00
61873;PMS5003;49692;55.052;73.310;2022-10-14T09:48:48;8.00;3.00;2.00
61873;PMS5003;49692;55.052;73.310;2022-10-14T09:53:59;6.50;2.00;2.00
61873;PMS5003;49692;55.052;73.310;2022-10-14T09:59:25;6.00;3.50;2.00
61873;PMS5003;49692;55.052;73.310;2022-10-14T10:01:57;8.75;2.00;2.00
61873;PMS5003;49692;55.052;73.310;2022-10-14T10:07:06;4.25;1.75;1.75
61873;PMS5003;49692;55.052;73.310;2022-10-14T10:09:58;3.50;1.25;1.00
61873;PMS5003;49692;55.052;73.310;2022-10-14T10:12:31;2.50;1.00;1.00
61873;PMS5003;49692;55.052;73.310;2022-10-14T10:15:00;2.50;1.00;1.00
61873;PMS5003;49692;55.052;73.310;2022-10-14T10:17:30;4.50;3.00;1.75
61873;PMS5003;49692;55.052;73.310;2022-10-14T10:20:11;5.75;2.00;1.50
61873;PMS5003;49692;55.052;73.310;2022-10-14T10:23:49;4.50;4.00;4.00
61873;PMS5003;49692;55.052;73.310;2022-10-14T10:25:59;5.50;4.50;4.00
61873;PMS5003;49692;55.052;73.310;2022-10-14T10:28:44;4.75;2.00;1.00
61873;PMS5003;49692;55.052;73.310;2022-10-14T10:31:27;7.75;3.00;3.00
61873;PMS5003;49692;55.052;73.310;2022-10-14T10:34:42;8.00;3.50;3.00
61873;PMS5003;49692;55.052;73.310;2022-10-14T10:37:27;4.00;1.25;1.00
61873;PMS5003;49692;55.052;73.310;2022-10-14T10:42:57;2.00;2.00;2.00
61873;PMS5003;49692;55.052;73.310;2022-10-14T10:48:46;8.50;5.00;2.75
61873;PMS5003;49692;55.052;73.310;2022-10-14T11:00:37;1.75;0.00;0.00
61873;PMS5003;49692;55.052;73.310;2022-10-14T11:03:25;2.50;0.75;0.50
61873;PMS5003;49692;55.052;73.310;2022-10-14T11:06:20;4.50;2.50;2.00
61873;PMS5003;49692;55.052;73.310;2022-10-14T11:09:30;4.00;3.00;3.00
61873;PMS5003;49692;55.052;73.310;2022-10-14T11:12:51;2.00;1.00;1.00
61873;PMS5003;49692;55.052;73.310;2022-10-14T11:15:57;6.50;3.00;3.00
61873;PMS5003;49692;55.052;73.310;2022-10-14T11:26:39;0.00;0.00;0.00
61873;PMS5003;49692;55.052;73.310;2022-10-14T11:32:13;2.75;2.75;2.00
61873;PMS5003;49692;55.052;73.310;2022-10-14T11:34:52;4.25;3.00;2.75
61873;PMS5003;49692;55.052;73.310;2022-10-14T11:38:13;9.25;3.00;3.00
61873;PMS5003;49692;55.052;73.310;2022-10-14T11:41:10;4.00;2.00;2.00
61873;PMS5003;49692;55.052;73.310;2022-10-14T11:46:10;1.75;1.75;1.50
61873;PMS5003;49692;55.052;73.310;2022-10-14T11:48:57;3.00;3.00;3.00
61873;PMS5003;49692;55.052;73.310;2022-10-14T11:54:16;6.75;4.25;4.00
61873;PMS5003;49692;55.052;73.310;2022-10-14T11:57:19;4.00;4.00;2.25
61873;PMS5003;49692;55.052;73.310;2022-10-14T12:00:04;6.25;4.50;2.75
61873;PMS5003;49692;55.052;73.310;2022-10-14T12:03:01;3.50;3.25;3.00
61873;PMS5003;49692;55.052;73.310;2022-10-14T12:06:10;5.00;3.00;2.00
61873;PMS5003;49692;55.052;73.310;2022-10-14T12:08:52;9.00;3.00;3.00
61873;PMS5003;49692;55.052;73.310;2022-10-14T12:11:29;9.25;3.00;3.00
61873;PMS5003;49692;55.052;73.310;2022-10-14T12:14:08;4.00;4.00;2.75
61873;PMS5003;49692;55.052;73.310;2022-10-14T12:16:42;3.00;2.50;2.00
61873;PMS5003;49692;55.052;73.310;2022-10-14T12:19:21;7.00;3.75;2.00
61873;PMS5003;49692;55.052;73.310;2022-10-14T12:24:56;11.25;7.00;5.50
61873;PMS5003;49692;55.052;73.310;2022-10-14T12:27:30;16.00;10.00;6.25
61873;PMS5003;49692;55.052;73.310;2022-10-14T12:29:59;5.00;3.75;3.25
61873;PMS5003;49692;55.052;73.310;2022-10-14T12:32:28;7.00;4.00;3.75
61873;PMS5003;49692;55.052;73.310;2022-10-14T12:35:00;7.50;5.00;4.00
61873;PMS5003;49692;55.052;73.310;2022-10-14T12:45:14;15.50;8.00;4.00
61873;PMS5003;49692;55.052;73.310;2022-10-14T12:47:45;18.00;10.00;6.75
61873;PMS5003;49692;55.052;73.310;2022-10-14T12:52:54;6.50;5.50;4.00
61873;PMS5003;49692;55.052;73.310;2022-10-14T12:55:34;13.00;4.00;3.50
61873;PMS5003;49692;55.052;73.310;2022-10-14T12:58:19;10.00;7.50;6.75
61873;PMS5003;49692;55.052;73.310;2022-10-14T13:01:03;15.75;11.50;7.00
61873;PMS5003;49692;55.052;73.310;2022-10-14T13:03:54;12.00;9.25;6.25
61873;PMS5003;49692;55.052;73.310;2022-10-14T13:17:30;9.75;4.00;3.00
61873;PMS5003;49692;55.052;73.310;2022-10-14T13:23:30;16.00;9.00;6.50
61873;PMS5003;49692;55.052;73.310;2022-10-14T13:26:12;14.00;12.00;9.00
61873;PMS5003;49692;55.052;73.310;2022-10-14T13:35:00;15.75;9.00;6.00
61873;PMS5003;49692;55.052;73.310;2022-10-14T13:37:45;15.25;10.00;7.50
61873;PMS5003;49692;55.052;73.310;2022-10-14T13:41:24;13.00;8.00;6.75
61873;PMS5003;49692;55.052;73.310;2022-10-14T13:44:39;12.25;10.00;7.00
61873;PMS5003;49692;55.052;73.310;2022-10-14T13:47:11;16.25;11.00;8.00
61873;PMS5003;49692;55.052;73.310;2022-10-14T13:50:18;9.50;7.00;6.00
61873;PMS5003;49692;55.052;73.310;2022-10-14T13:53:37;4.00;4.00;1.00
61873;PMS5003;49692;55.052;73.310;2022-10-14T13:55:50;10.75;6.75;5.75
61873;PMS5003;49692;55.052;73.310;2022-10-14T13:58:19;13.50;9.75;7.00
61873;PMS5003;49692;55.052;73.310;2022-10-14T14:03:28;14.00;7.00;5.25
61873;PMS5003;49692;55.052;73.310;2022-10-14T14:05:59;18.25;8.50;6.00
61873;PMS5003;49692;55.052;73.310;2022-10-14T14:08:29;11.75;9.00;7.00
61873;PMS5003;49692;55.052;73.310;2022-10-14T14:10:59;10.00;9.00;6.00
61873;PMS5003;49692;55.052;73.310;2022-10-14T14:13:36;8.25;6.50;4.00
61873;PMS5003;49692;55.052;73.310;2022-10-14T14:16:19;9.25;7.00;6.00
61873;PMS5003;49692;55.052;73.310;2022-10-14T14:19:46;15.75;9.75;6.00
61873;PMS5003;49692;55.052;73.310;2022-10-14T14:22:31;12.00;6.00;3.00
61873;PMS5003;49692;55.052;73.310;2022-10-14T14:28:04;4.50;3.50;1.00
61873;PMS5003;49692;55.052;73.310;2022-10-14T14:31:16;15.50;10.00;6.50
61873;PMS5003;49692;55.052;73.310;2022-10-14T14:33:57;9.75;5.00;4.00
61873;PMS5003;49692;55.052;73.310;2022-10-14T14:36:33;16.00;10.00;5.00
61873;PMS5003;49692;55.052;73.310;2022-10-14T14:40:03;10.25;7.00;5.00
61873;PMS5003;49692;55.052;73.310;2022-10-14T14:42:35;7.75;5.00;4.00
61873;PMS5003;49692;55.052;73.310;2022-10-14T14:51:13;7.00;4.00;3.00
61873;PMS5003;49692;55.052;73.310;2022-10-14T14:53:55;9.50;4.00;2.75
61873;PMS5003;49692;55.052;73.310;2022-10-14T14:56:27;6.50;4.50;2.25
61873;PMS5003;49692;55.052;73.310;2022-10-14T14:59:06;6.50;3.50;2.00
61873;PMS5003;49692;55.052;73.310;2022-10-14T15:01:43;6.75;6.25;4.00
61873;PMS5003;49692;55.052;73.310;2022-10-14T15:04:15;6.75;4.00;3.75
61873;PMS5003;49692;55.052;73.310;2022-10-14T15:09:49;9.75;5.50;4.00
61873;PMS5003;49692;55.052;73.310;2022-10-14T15:12:21;7.25;6.00;4.25
61873;PMS5003;49692;55.052;73.310;2022-10-14T15:15:21;4.50;4.50;4.00
61873;PMS5003;49692;55.052;73.310;2022-10-14T15:18:13;4.75;1.00;1.00
61873;PMS5003;49692;55.052;73.310;2022-10-14T15:21:05;7.50;3.00;1.00
61873;PMS5003;49692;55.052;73.310;2022-10-14T15:23:58;7.00;3.25;3.00
61873;PMS5003;49692;55.052;73.310;2022-10-14T15:26:31;5.00;4.00;3.75
61873;PMS5003;49692;55.052;73.310;2022-10-14T15:31:47;4.00;3.25;3.25
61873;PMS5003;49692;55.052;73.310;2022-10-14T15:34:44;6.00;4.50;4.00
61873;PMS5003;49692;55.052;73.310;2022-10-14T15:37:19;7.75;5.50;4.50
61873;PMS5003;49692;55.052;73.310;2022-10-14T15:40:01;5.50;3.50;3.00
61873;PMS5003;49692;55.052;73.310;2022-10-14T15:42:34;10.25;4.50;4.00
61873;PMS5003;49692;55.052;73.310;2022-10-14T15:45:06;7.00;4.00;3.75
61873;PMS5003;49692;55.052;73.310;2022-10-14T15:47:34;6.50;3.75;3.00
61873;PMS5003;49692;55.052;73.310;2022-10-14T15:50:15;8.00;4.00;3.25
61873;PMS5003;49692;55.052;73.310;2022-10-14T15:59:08;11.00;4.00;4.00
61873;PMS5003;49692;55.052;73.310;2022-10-14T16:02:14;7.25;4.00;3.75
61873;PMS5003;49692;55.052;73.310;2022-10-14T16:05:02;6.75;6.00;4.00
61873;PMS5003;49692;55.052;73.310;2022-10-14T16:07:30;4.75;4.50;4.00
61873;PMS5003;49692;55.052;73.310;2022-10-14T16:09:59;13.50;9.25;6.50
61873;PMS5003;49692;55.052;73.310;2022-10-14T16:12:29;12.50;7.50;6.00
61873;PMS5003;49692;55.052;73.310;2022-10-14T16:14:59;9.00;3.75;3.75
61873;PMS5003;49692;55.052;73.310;2022-10-14T16:17:32;9.75;6.75;4.00
61873;PMS5003;49692;55.052;73.310;2022-10-14T16:20:02;10.75;8.00;5.50
61873;PMS5003;49692;55.052;73.310;2022-10-14T16:22:35;13.75;9.00;7.00
61873;PMS5003;49692;55.052;73.310;2022-10-14T16:25:31;7.50;7.50;6.00
61873;PMS5003;49692;55.052;73.310;2022-10-14T16:28:27;12.00;6.50;4.00
61873;PMS5003;49692;55.052;73.310;2022-10-14T16:31:08;15.75;9.00;7.00
61873;PMS5003;49692;55.052;73.310;2022-10-14T16:33:38;15.75;9.25;7.00
61873;PMS5003;49692;55.052;73.310;2022-10-14T16:36:16;15.00;12.00;8.00
61873;PMS5003;49692;55.052;73.310;2022-10-14T16:39:05;18.00;10.00;9.00
61873;PMS5003;49692;55.052;73.310;2022-10-14T16:41:32;18.33;13.33;7.67
61873;PMS5003;49692;55.052;73.310;2022-10-14T16:44:07;14.00;10.00;8.75
61873;PMS5003;49692;55.052;73.310;2022-10-14T16:47:11;15.00;12.50;9.00
61873;PMS5003;49692;55.052;73.310;2022-10-14T16:49:54;16.75;12.75;9.25
61873;PMS5003;49692;55.052;73.310;2022-10-14T16:52:43;15.25;14.50;10.00
61873;PMS5003;49692;55.052;73.310;2022-10-14T16:55:34;16.00;12.25;9.75
61873;PMS5003;49692;55.052;73.310;2022-10-14T16:58:06;15.50;12.00;10.00
61873;PMS5003;49692;55.052;73.310;2022-10-14T17:03:47;18.25;13.00;9.00
61873;PMS5003;49692;55.052;73.310;2022-10-14T17:06:21;7.50;6.25;4.00
61873;PMS5003;49692;55.052;73.310;2022-10-14T17:08:49;17.75;13.00;9.25
61873;PMS5003;49692;55.052;73.310;2022-10-14T17:11:18;20.50;16.75;11.25
61873;PMS5003;49692;55.052;73.310;2022-10-14T17:13:49;20.25;17.00;12.25
61873;PMS5003;49692;55.052;73.310;2022-10-14T17:16:21;19.50;15.25;12.00
61873;PMS5003;49692;55.052;73.310;2022-10-14T17:18:50;25.00;21.25;13.50
61873;PMS5003;49692;55.052;73.310;2022-10-14T17:21:22;16.00;15.00;12.00
61873;PMS5003;49692;55.052;73.310;2022-10-14T17:23:53;12.25;12.25;12.00